createdAt,value
2022-08-19T00:00:07.781Z,68.58
2022-08-19T00:01:07.770Z,68.28
2022-08-19T00:02:07.776Z,68.21
2022-08-19T00:03:07.770Z,68.21
2022-08-19T00:05:07.779Z,68.37
2022-08-19T00:06:07.771Z,68.26
2022-08-19T00:09:07.780Z,68.27
2022-08-19T00:10:07.808Z,68.23
2022-08-19T00:11:07.780Z,68.46
2022-08-19T00:12:07.809Z,68.85
2022-08-19T00:13:07.790Z,68.85
2022-08-19T00:14:07.795Z,69.05
2022-08-19T00:15:07.801Z,69.05
2022-08-19T00:16:07.785Z,69.09
2022-08-19T00:17:07.807Z,68.93
2022-08-19T00:18:07.807Z,68.63
2022-08-19T00:20:07.833Z,68.59
2022-08-19T00:21:07.822Z,68.71
2022-08-19T00:22:07.807Z,68.71
2022-08-19T00:23:07.814Z,68.82
2022-08-19T00:26:07.835Z,68.61
2022-08-19T00:27:25.731Z,68.61
2022-08-19T00:31:07.879Z,68.62
2022-08-19T00:32:07.849Z,68.50
2022-08-19T00:33:07.851Z,69.58
2022-08-19T00:34:07.858Z,69.58
2022-08-19T00:35:07.848Z,69.98
2022-08-19T00:36:07.871Z,70.07
2022-08-19T00:37:07.853Z,70.15
2022-08-19T00:38:07.845Z,70.11
2022-08-19T00:39:07.863Z,70.15
2022-08-19T00:40:07.986Z,70.04
2022-08-19T00:41:07.861Z,70.28
2022-08-19T00:42:07.889Z,70.49
2022-08-19T00:43:07.865Z,70.49
2022-08-19T00:44:07.870Z,70.42
2022-08-19T00:45:07.888Z,69.89
2022-08-19T00:46:07.879Z,69.89
2022-08-19T00:47:07.870Z,69.99
2022-08-19T00:49:07.888Z,70.11
2022-08-19T00:50:07.889Z,70.11
2022-08-19T00:51:07.906Z,70.22
2022-08-19T00:52:07.907Z,70.17
2022-08-19T00:54:07.904Z,69.79
2022-08-19T00:55:07.904Z,70.07
2022-08-19T00:56:07.931Z,70.55
2022-08-19T00:57:07.915Z,70.83
2022-08-19T00:58:07.913Z,70.83
2022-08-19T00:59:07.897Z,71.11
2022-08-19T01:00:07.907Z,70.66
2022-08-19T01:01:07.945Z,70.54
2022-08-19T01:02:07.921Z,70.54
2022-08-19T01:03:07.937Z,70.07
2022-08-19T01:04:07.934Z,70.07
2022-08-19T01:05:07.927Z,69.88
2022-08-19T01:06:07.951Z,69.62
2022-08-19T01:07:07.944Z,69.60
2022-08-19T01:08:07.937Z,69.60
2022-08-19T01:09:07.923Z,69.47
2022-08-19T01:10:07.941Z,69.27
2022-08-19T01:11:07.943Z,69.15
2022-08-19T01:12:07.931Z,68.99
2022-08-19T01:13:07.940Z,69.05
2022-08-19T01:14:07.974Z,68.69
2022-08-19T01:15:07.973Z,68.69
2022-08-19T01:16:07.973Z,68.66
2022-08-19T01:17:07.969Z,68.77
2022-08-19T01:19:07.963Z,68.52
2022-08-19T01:21:08.006Z,68.75
2022-08-19T01:22:14.199Z,68.75
2022-08-19T01:23:07.977Z,68.76
2022-08-19T01:24:07.971Z,68.67
2022-08-19T01:25:12.857Z,68.62
2022-08-19T01:26:07.976Z,68.61
2022-08-19T01:27:07.974Z,68.50
2022-08-19T01:28:10.998Z,68.53
2022-08-19T01:29:07.984Z,68.57
2022-08-19T01:30:07.989Z,68.37
2022-08-19T01:32:07.987Z,68.35
2022-08-19T01:33:08.010Z,68.33
2022-08-19T01:35:08.007Z,68.37
2022-08-19T01:37:08.008Z,68.63
2022-08-19T01:38:08.013Z,68.67
2022-08-19T01:39:08.020Z,68.52
2022-08-19T01:40:09.512Z,68.47
2022-08-19T01:41:09.735Z,68.41
2022-08-19T01:42:08.009Z,68.40
2022-08-19T01:43:08.022Z,68.39
2022-08-19T01:44:18.575Z,68.70
2022-08-19T01:45:08.025Z,68.70
2022-08-19T01:47:08.041Z,68.97
2022-08-19T01:48:08.051Z,68.84
2022-08-19T01:49:08.062Z,68.75
2022-08-19T01:50:08.019Z,68.67
2022-08-19T01:51:08.049Z,68.57
2022-08-19T01:55:08.068Z,68.70
2022-08-19T01:58:08.070Z,68.40
2022-08-19T02:00:08.093Z,68.28
2022-08-19T02:02:08.085Z,68.29
2022-08-19T02:03:08.066Z,68.30
2022-08-19T02:04:08.081Z,68.24
2022-08-19T02:06:08.077Z,68.26
2022-08-19T02:09:08.106Z,68.02
2022-08-19T02:10:12.271Z,68.02
2022-08-19T02:11:08.080Z,68.13
2022-08-19T02:12:08.108Z,68.24
2022-08-19T02:13:08.104Z,68.26
2022-08-19T02:14:08.104Z,68.33
2022-08-19T02:15:08.119Z,68.38
2022-08-19T02:16:08.131Z,68.38
2022-08-19T02:17:08.104Z,68.58
2022-08-19T02:18:08.102Z,68.46
2022-08-19T02:19:08.110Z,68.45
2022-08-19T02:20:08.098Z,68.44
2022-08-19T02:23:13.648Z,68.41
2022-08-19T02:24:08.132Z,68.57
2022-08-19T02:25:08.130Z,68.57
2022-08-19T02:27:08.127Z,68.36
2022-08-19T02:28:08.139Z,68.38
2022-08-19T02:29:08.128Z,68.46
2022-08-19T02:32:08.169Z,68.46
2022-08-19T02:37:08.176Z,68.56
2022-08-19T02:41:08.180Z,68.59
2022-08-19T02:43:08.188Z,68.66
2022-08-19T02:44:26.437Z,68.50
2022-08-19T02:45:08.175Z,68.45
2022-08-19T02:48:14.847Z,68.37
2022-08-19T02:49:08.180Z,68.38
2022-08-19T02:50:08.182Z,68.38
2022-08-19T02:51:08.197Z,68.37
2022-08-19T02:52:08.196Z,68.51
2022-08-19T02:54:08.193Z,68.54
2022-08-19T02:56:08.207Z,68.38
2022-08-19T02:57:08.203Z,68.22
2022-08-19T02:58:08.343Z,68.35
2022-08-19T03:01:08.261Z,68.43
2022-08-19T03:02:08.220Z,68.43
2022-08-19T03:03:08.234Z,68.27
2022-08-19T03:04:08.224Z,68.27
2022-08-19T03:06:08.241Z,68.24
2022-08-19T03:07:11.062Z,68.12
2022-08-19T03:09:08.243Z,68.32
2022-08-19T03:10:08.240Z,68.32
2022-08-19T03:13:08.245Z,68.20
2022-08-19T03:14:08.235Z,68.12
2022-08-19T03:15:08.249Z,68.28
2022-08-19T03:16:08.268Z,68.37
2022-08-19T03:17:08.267Z,68.40
2022-08-19T03:18:08.250Z,68.41
2022-08-19T03:19:08.282Z,68.38
2022-08-19T03:20:08.267Z,68.33
2022-08-19T03:21:08.281Z,68.24
2022-08-19T03:28:08.294Z,68.20
2022-08-19T03:29:08.636Z,68.25
2022-08-19T03:30:08.371Z,68.03
2022-08-19T03:31:41.687Z,67.98
2022-08-19T03:32:08.303Z,68.17
2022-08-19T03:33:08.295Z,68.17
2022-08-19T03:34:08.288Z,68.12
2022-08-19T03:35:08.307Z,68.09
2022-08-19T03:36:08.294Z,68.26
2022-08-19T03:38:08.302Z,68.26
2022-08-19T03:39:08.315Z,68.24
2022-08-19T03:40:08.436Z,68.31
2022-08-19T03:42:38.298Z,68.58
2022-08-19T03:43:08.329Z,68.52
2022-08-19T03:45:08.359Z,68.37
2022-08-19T03:46:08.320Z,68.32
2022-08-19T03:47:08.327Z,68.35
2022-08-19T03:49:08.341Z,68.35
2022-08-19T03:51:08.354Z,68.26
2022-08-19T03:52:08.610Z,68.36
2022-08-19T03:53:08.355Z,68.34
2022-08-19T03:55:08.356Z,68.44
2022-08-19T03:58:08.363Z,68.30
2022-08-19T03:59:08.378Z,68.28
2022-08-19T04:00:13.467Z,68.22
2022-08-19T04:01:08.395Z,68.17
2022-08-19T04:03:08.379Z,68.27
2022-08-19T04:04:08.390Z,68.29
2022-08-19T04:05:08.383Z,68.17
2022-08-19T04:07:08.395Z,68.32
2022-08-19T04:08:13.305Z,68.24
2022-08-19T04:09:08.393Z,68.25
2022-08-19T04:10:10.604Z,68.40
2022-08-19T04:11:08.387Z,68.47
2022-08-19T04:12:08.407Z,68.66
2022-08-19T04:13:08.392Z,68.71
2022-08-19T04:14:08.409Z,68.71
2022-08-19T04:15:08.409Z,68.81
2022-08-19T04:18:08.417Z,68.57
2022-08-19T04:19:08.419Z,68.60
2022-08-19T04:21:08.405Z,68.69
2022-08-19T04:22:08.416Z,68.68
2022-08-19T04:23:08.430Z,68.62
2022-08-19T04:24:08.417Z,68.56
2022-08-19T04:25:08.447Z,68.50
2022-08-19T04:26:09.295Z,68.75
2022-08-19T04:27:08.443Z,68.87
2022-08-19T04:28:08.457Z,68.96
2022-08-19T04:29:12.300Z,68.83
2022-08-19T04:31:08.461Z,68.86
2022-08-19T04:32:09.798Z,68.86
2022-08-19T04:33:08.471Z,69.05
2022-08-19T04:34:08.559Z,69.06
2022-08-19T04:35:17.574Z,69.00
2022-08-19T04:36:08.466Z,69.03
2022-08-19T04:37:09.741Z,68.91
2022-08-19T04:38:08.470Z,68.82
2022-08-19T04:42:08.491Z,68.81
2022-08-19T04:43:08.503Z,68.93
2022-08-19T04:46:08.482Z,68.88
2022-08-19T04:47:11.210Z,68.93
2022-08-19T04:48:26.490Z,69.05
2022-08-19T04:49:12.946Z,68.92
2022-08-19T04:50:08.496Z,68.74
2022-08-19T04:51:08.495Z,68.67
2022-08-19T04:52:08.504Z,68.70
2022-08-19T04:53:08.503Z,68.38
2022-08-19T04:56:08.513Z,68.52
2022-08-19T04:57:08.623Z,68.43
2022-08-19T04:58:08.531Z,68.48
2022-08-19T05:00:08.515Z,68.60
2022-08-19T05:01:08.588Z,68.43
2022-08-19T05:02:08.554Z,68.37
2022-08-19T05:03:08.527Z,68.00
2022-08-19T05:04:08.544Z,68.31
2022-08-19T05:05:08.606Z,68.36
2022-08-19T05:06:08.545Z,68.89
2022-08-19T05:07:08.576Z,69.13
2022-08-19T05:08:08.546Z,68.98
2022-08-19T05:09:08.551Z,68.98
2022-08-19T05:11:08.572Z,68.90
2022-08-19T05:12:08.571Z,68.90
2022-08-19T05:13:08.566Z,68.77
2022-08-19T05:14:08.567Z,68.75
2022-08-19T05:15:08.560Z,68.62
2022-08-19T05:16:08.572Z,68.59
2022-08-19T05:19:08.590Z,68.43
2022-08-19T05:21:08.598Z,68.08
2022-08-19T05:22:08.588Z,68.00
2022-08-19T05:23:10.812Z,68.00
2022-08-19T05:24:08.597Z,68.03
2022-08-19T05:25:12.580Z,67.97
2022-08-19T05:26:08.600Z,67.86
2022-08-19T05:27:08.596Z,67.86
2022-08-19T05:30:08.621Z,67.32
2022-08-19T05:31:08.600Z,67.32
2022-08-19T05:32:08.611Z,67.80
2022-08-19T05:34:20.037Z,67.84
2022-08-19T05:35:08.725Z,67.84
2022-08-19T05:36:08.641Z,67.82
2022-08-19T05:37:08.618Z,67.74
2022-08-19T05:38:08.621Z,67.74
2022-08-19T05:42:08.650Z,67.96
2022-08-19T05:45:08.637Z,67.98
2022-08-19T05:47:08.646Z,68.00
2022-08-19T05:49:08.652Z,67.92
2022-08-19T05:50:08.662Z,67.96
2022-08-19T05:51:08.670Z,67.68
2022-08-19T05:52:08.677Z,67.68
2022-08-19T05:53:08.673Z,67.80
2022-08-19T05:54:08.690Z,67.73
2022-08-19T05:55:08.681Z,67.77
2022-08-19T05:57:08.681Z,67.64
2022-08-19T05:58:08.775Z,67.79
2022-08-19T05:59:08.673Z,67.78
2022-08-19T06:01:08.695Z,67.71
2022-08-19T06:02:08.724Z,67.80
2022-08-19T06:03:11.873Z,67.82
2022-08-19T06:04:08.680Z,67.91
2022-08-19T06:06:08.713Z,67.96
2022-08-19T06:07:12.150Z,68.00
2022-08-19T06:08:08.699Z,67.75
2022-08-19T06:09:08.735Z,67.66
2022-08-19T06:10:08.717Z,67.84
2022-08-19T06:11:08.756Z,68.02
2022-08-19T06:12:08.755Z,68.19
2022-08-19T06:14:08.717Z,68.03
2022-08-19T06:15:08.728Z,67.81
2022-08-19T06:16:08.737Z,67.93
2022-08-19T06:17:08.760Z,68.09
2022-08-19T06:18:08.755Z,68.07
2022-08-19T06:19:08.746Z,68.15
2022-08-19T06:20:08.754Z,68.16
2022-08-19T06:21:08.750Z,68.21
2022-08-19T06:22:08.728Z,68.21
2022-08-19T06:23:08.747Z,68.02
2022-08-19T06:24:08.755Z,68.02
2022-08-19T06:25:08.772Z,67.90
2022-08-19T06:26:08.764Z,67.93
2022-08-19T06:27:08.754Z,67.79
2022-08-19T06:28:15.064Z,67.78
2022-08-19T06:29:08.781Z,67.74
2022-08-19T06:30:08.774Z,67.79
2022-08-19T06:31:08.795Z,67.87
2022-08-19T06:32:08.787Z,67.83
2022-08-19T06:33:08.791Z,67.73
2022-08-19T06:34:08.776Z,67.79
2022-08-19T06:35:08.754Z,67.79
2022-08-19T06:36:08.824Z,67.81
2022-08-19T06:39:08.784Z,67.77
2022-08-19T06:40:08.826Z,67.69
2022-08-19T06:41:08.810Z,67.66
2022-08-19T06:42:10.317Z,67.78
2022-08-19T06:43:09.574Z,67.82
2022-08-19T06:44:08.812Z,67.98
2022-08-19T06:45:09.231Z,67.98
2022-08-19T06:46:08.829Z,68.13
2022-08-19T06:47:09.577Z,67.73
2022-08-19T06:48:08.816Z,67.43
2022-08-19T06:49:08.807Z,67.43
2022-08-19T06:50:08.813Z,67.37
2022-08-19T06:51:08.941Z,67.33
2022-08-19T06:53:08.842Z,67.28
2022-08-19T06:54:19.339Z,67.07
2022-08-19T06:55:08.823Z,67.07
2022-08-19T06:56:08.829Z,66.78
2022-08-19T06:57:08.838Z,67.18
2022-08-19T06:58:08.833Z,67.36
2022-08-19T06:59:08.836Z,67.36
2022-08-19T07:01:09.296Z,67.48
2022-08-19T07:02:08.961Z,67.55
2022-08-19T07:03:09.374Z,67.20
2022-08-19T07:04:08.862Z,66.95
2022-08-19T07:06:09.885Z,67.30
2022-08-19T07:07:19.723Z,67.25
2022-08-19T07:08:08.851Z,67.25
2022-08-19T07:10:08.858Z,67.54
2022-08-19T07:11:09.349Z,67.83
2022-08-19T07:12:08.861Z,67.83
2022-08-19T07:14:19.229Z,67.95
2022-08-19T07:15:08.870Z,67.78
2022-08-19T07:16:08.885Z,67.78
2022-08-19T07:17:08.876Z,67.67
2022-08-19T07:18:11.951Z,67.58
2022-08-19T07:19:11.566Z,67.67
2022-08-19T07:20:09.585Z,67.67
2022-08-19T07:22:08.906Z,67.38
2022-08-19T07:23:08.894Z,67.39
2022-08-19T07:24:08.908Z,67.31
2022-08-19T07:25:08.935Z,67.20
2022-08-19T07:26:08.916Z,67.20
2022-08-19T07:27:13.830Z,67.24
2022-08-19T07:28:08.912Z,67.22
2022-08-19T07:29:08.918Z,67.04
2022-08-19T07:30:12.151Z,66.93
2022-08-19T07:33:08.913Z,66.95
2022-08-19T07:34:08.981Z,66.85
2022-08-19T07:35:08.937Z,66.84
2022-08-19T07:36:08.937Z,66.84
2022-08-19T07:37:08.950Z,67.21
2022-08-19T07:38:08.941Z,67.25
2022-08-19T07:39:08.959Z,67.59
2022-08-19T07:40:09.044Z,67.83
2022-08-19T07:41:08.944Z,67.93
2022-08-19T07:42:08.974Z,68.00
2022-08-19T07:43:12.318Z,68.14
2022-08-19T07:44:08.959Z,68.15
2022-08-19T07:47:18.326Z,68.20
2022-08-19T07:49:08.971Z,68.20
2022-08-19T07:50:08.985Z,68.35
2022-08-19T07:51:08.963Z,68.64
2022-08-19T07:52:08.996Z,68.52
2022-08-19T07:53:08.965Z,68.52
2022-08-19T07:55:11.473Z,68.67
2022-08-19T07:56:08.982Z,68.71
2022-08-19T07:57:09.015Z,68.69
2022-08-19T07:58:08.996Z,68.79
2022-08-19T07:59:09.007Z,68.88
2022-08-19T08:00:09.003Z,68.95
2022-08-19T08:01:08.990Z,69.11
2022-08-19T08:03:09.015Z,69.06
2022-08-19T08:04:09.042Z,69.13
2022-08-19T08:05:09.007Z,69.13
2022-08-19T08:06:09.036Z,68.96
2022-08-19T08:07:09.038Z,68.94
2022-08-19T08:08:09.033Z,68.94
2022-08-19T08:09:09.060Z,68.88
2022-08-19T08:10:12.631Z,68.51
2022-08-19T08:11:09.035Z,68.64
2022-08-19T08:12:32.517Z,68.58
2022-08-19T08:13:11.077Z,68.51
2022-08-19T08:14:09.056Z,68.51
2022-08-19T08:15:09.030Z,68.51
2022-08-19T08:16:10.287Z,68.40
2022-08-19T08:17:11.011Z,68.55
2022-08-19T08:19:25.799Z,68.46
2022-08-19T08:20:09.048Z,68.40
2022-08-19T08:21:09.049Z,68.40
2022-08-19T08:23:09.047Z,68.66
2022-08-19T08:25:09.091Z,68.68
2022-08-19T08:26:09.073Z,68.52
2022-08-19T08:27:11.433Z,68.52
2022-08-19T08:28:09.067Z,68.68
2022-08-19T08:29:12.460Z,68.77
2022-08-19T08:32:14.800Z,68.76
2022-08-19T08:33:09.118Z,69.00
2022-08-19T08:36:09.110Z,68.87
2022-08-19T08:37:09.115Z,68.98
2022-08-19T08:38:09.097Z,68.95
2022-08-19T08:39:09.085Z,68.95
2022-08-19T08:40:12.969Z,68.95
2022-08-19T08:41:09.109Z,68.63
2022-08-19T08:42:10.228Z,68.63
2022-08-19T08:43:11.187Z,68.97
2022-08-19T08:45:09.118Z,69.02
2022-08-19T08:47:09.114Z,68.84
2022-08-19T08:48:22.436Z,68.93
2022-08-19T08:49:09.615Z,69.11
2022-08-19T08:50:09.113Z,68.90
2022-08-19T08:51:09.305Z,69.01
2022-08-19T08:53:09.112Z,69.13
2022-08-19T08:54:09.755Z,68.99
2022-08-19T08:55:10.109Z,69.33
2022-08-19T08:56:09.134Z,69.46
2022-08-19T08:57:09.129Z,69.43
2022-08-19T08:58:09.159Z,69.56
2022-08-19T08:59:09.151Z,69.48
2022-08-19T09:00:15.684Z,69.39
2022-08-19T09:01:09.158Z,69.31
2022-08-19T09:02:09.149Z,69.14
2022-08-19T09:03:09.143Z,69.22
2022-08-19T09:04:09.159Z,69.16
2022-08-19T09:05:09.158Z,69.18
2022-08-19T09:06:11.837Z,69.18
2022-08-19T09:07:18.422Z,69.23
2022-08-19T09:08:09.180Z,69.23
2022-08-19T09:09:12.186Z,69.39
2022-08-19T09:10:09.160Z,69.33
2022-08-19T09:11:09.171Z,69.82
2022-08-19T09:12:09.181Z,69.87
2022-08-19T09:13:09.643Z,70.05
2022-08-19T09:14:19.174Z,70.14
2022-08-19T09:15:09.174Z,69.98
2022-08-19T09:16:09.199Z,69.82
2022-08-19T09:17:09.179Z,69.67
2022-08-19T09:19:09.187Z,69.53
2022-08-19T09:20:09.397Z,69.58
2022-08-19T09:21:09.193Z,69.79
2022-08-19T09:22:09.185Z,69.77
2022-08-19T09:23:09.199Z,69.87
2022-08-19T09:25:09.192Z,69.99
2022-08-19T09:26:09.204Z,70.17
2022-08-19T09:27:18.273Z,70.31
2022-08-19T09:28:20.611Z,70.18
2022-08-19T09:31:09.266Z,70.34
2022-08-19T09:32:26.079Z,70.23
2022-08-19T09:34:09.239Z,70.48
2022-08-19T09:35:09.238Z,70.23
2022-08-19T09:36:09.269Z,70.55
2022-08-19T09:37:09.232Z,70.55
2022-08-19T09:39:16.239Z,70.90
2022-08-19T09:40:09.345Z,70.84
2022-08-19T09:41:09.278Z,70.84
2022-08-19T09:42:16.682Z,70.48
2022-08-19T09:43:11.389Z,70.14
2022-08-19T09:44:09.239Z,70.46
2022-08-19T09:45:10.252Z,70.65
2022-08-19T09:46:09.256Z,70.70
2022-08-19T09:47:09.255Z,70.62
2022-08-19T09:49:09.277Z,70.79
2022-08-19T09:50:09.271Z,70.95
2022-08-19T09:51:11.855Z,70.94
2022-08-19T09:52:09.274Z,70.74
2022-08-19T09:53:09.279Z,70.57
2022-08-19T09:55:09.285Z,70.45
2022-08-19T09:56:09.338Z,70.60
2022-08-19T09:57:09.297Z,70.47
2022-08-19T09:58:09.284Z,70.51
2022-08-19T10:00:09.292Z,70.35
2022-08-19T10:01:09.343Z,70.71
2022-08-19T10:02:10.945Z,70.69
2022-08-19T10:03:09.315Z,70.64
2022-08-19T10:04:14.755Z,70.25
2022-08-19T10:05:09.302Z,70.03
2022-08-19T10:06:14.662Z,70.27
2022-08-19T10:07:09.302Z,70.29
2022-08-19T10:08:13.296Z,70.11
2022-08-19T10:09:09.327Z,70.23
2022-08-19T10:10:09.311Z,70.55
2022-08-19T10:11:27.219Z,70.50
2022-08-19T10:12:11.296Z,70.22
2022-08-19T10:13:09.325Z,70.22
2022-08-19T10:14:09.312Z,70.38
2022-08-19T10:16:09.334Z,70.40
2022-08-19T10:17:17.667Z,70.40
2022-08-19T10:18:09.345Z,70.28
2022-08-19T10:19:09.359Z,70.28
2022-08-19T10:20:09.332Z,69.90
2022-08-19T10:21:09.352Z,70.16
2022-08-19T10:22:10.071Z,70.12
2022-08-19T10:23:09.352Z,70.28
2022-08-19T10:24:09.617Z,70.37
2022-08-19T10:26:09.384Z,70.45
2022-08-19T10:27:09.352Z,70.45
2022-08-19T10:28:10.485Z,70.52
2022-08-19T10:29:09.591Z,70.52
2022-08-19T10:30:10.107Z,70.65
2022-08-19T10:31:09.410Z,70.38
2022-08-19T10:32:10.003Z,70.38
2022-08-19T10:33:11.172Z,70.41
2022-08-19T10:34:10.104Z,70.15
2022-08-19T10:36:09.397Z,70.14
2022-08-19T10:37:10.772Z,69.96
2022-08-19T10:39:09.395Z,70.18
2022-08-19T10:40:09.536Z,70.23
2022-08-19T10:41:09.396Z,70.14
2022-08-19T10:42:09.403Z,70.28
2022-08-19T10:43:09.401Z,70.58
2022-08-19T10:44:09.410Z,70.73
2022-08-19T10:45:09.394Z,70.68
2022-08-19T10:46:09.633Z,70.76
2022-08-19T10:47:24.396Z,70.63
2022-08-19T10:48:09.405Z,70.37
2022-08-19T10:50:11.808Z,70.83
2022-08-19T10:51:09.440Z,70.83
2022-08-19T10:52:10.319Z,70.66
2022-08-19T10:53:09.871Z,70.54
2022-08-19T10:54:12.516Z,70.64
2022-08-19T10:55:09.439Z,70.31
2022-08-19T10:56:09.476Z,70.41
2022-08-19T10:58:09.559Z,70.42
2022-08-19T10:59:09.467Z,70.34
2022-08-19T11:00:09.457Z,70.13
2022-08-19T11:01:09.509Z,70.13
2022-08-19T11:02:09.445Z,69.91
2022-08-19T11:04:09.453Z,70.08
2022-08-19T11:05:14.659Z,69.72
2022-08-19T11:06:09.478Z,69.52
2022-08-19T11:07:09.475Z,69.66
2022-08-19T11:08:22.777Z,69.66
2022-08-19T11:09:09.465Z,69.66
2022-08-19T11:10:13.024Z,69.56
2022-08-19T11:11:09.471Z,69.27
2022-08-19T11:12:09.475Z,69.44
2022-08-19T11:13:09.498Z,69.54
2022-08-19T11:14:09.491Z,69.54
2022-08-19T11:16:09.475Z,69.63
2022-08-19T11:17:09.495Z,69.51
2022-08-19T11:19:09.501Z,69.58
2022-08-19T11:20:09.502Z,69.51
2022-08-19T11:21:09.503Z,69.58
2022-08-19T11:22:09.508Z,69.38
2022-08-19T11:23:09.490Z,69.32
2022-08-19T11:24:09.512Z,69.23
2022-08-19T11:25:09.512Z,69.32
2022-08-19T11:26:09.510Z,69.26
2022-08-19T11:27:09.517Z,69.24
2022-08-19T11:28:09.513Z,69.09
2022-08-19T11:29:09.543Z,69.03
2022-08-19T11:30:12.813Z,68.90
2022-08-19T11:32:09.520Z,68.76
2022-08-19T11:33:09.539Z,68.86
2022-08-19T11:34:09.547Z,68.89
2022-08-19T11:35:09.609Z,68.73
2022-08-19T11:36:09.550Z,68.66
2022-08-19T11:37:09.568Z,68.78
2022-08-19T11:38:09.914Z,68.88
2022-08-19T11:39:09.558Z,69.02
2022-08-19T11:40:09.653Z,69.07
2022-08-19T11:41:09.563Z,68.66
2022-08-19T11:44:09.554Z,69.29
2022-08-19T11:45:09.570Z,69.37
2022-08-19T11:46:09.557Z,69.46
2022-08-19T11:47:09.597Z,69.21
2022-08-19T11:48:09.580Z,69.15
2022-08-19T11:49:13.678Z,69.07
2022-08-19T11:53:10.087Z,69.59
2022-08-19T11:54:09.609Z,69.52
2022-08-19T11:55:09.588Z,69.52
2022-08-19T11:58:15.024Z,69.49
2022-08-19T11:59:14.116Z,69.83
2022-08-19T12:00:09.651Z,69.83
2022-08-19T12:01:09.612Z,69.77
2022-08-19T12:02:09.602Z,69.90
2022-08-19T12:03:09.622Z,69.75
2022-08-19T12:04:09.682Z,69.75
2022-08-19T12:05:12.691Z,70.03
2022-08-19T12:06:09.604Z,70.50
2022-08-19T12:07:09.626Z,70.97
2022-08-19T12:08:09.645Z,70.68
2022-08-19T12:09:09.647Z,70.68
2022-08-19T12:10:10.649Z,70.51
2022-08-19T12:11:09.628Z,70.33
2022-08-19T12:12:09.650Z,70.31
2022-08-19T12:13:09.628Z,70.42
2022-08-19T12:14:09.641Z,70.08
2022-08-19T12:15:09.622Z,70.01
2022-08-19T12:16:09.665Z,70.15
2022-08-19T12:17:09.648Z,70.15
2022-08-19T12:18:09.639Z,70.12
2022-08-19T12:19:09.655Z,70.21
2022-08-19T12:20:09.661Z,70.42
2022-08-19T12:21:09.650Z,70.83
2022-08-19T12:22:09.643Z,70.74
2022-08-19T12:23:09.660Z,70.57
2022-08-19T12:24:09.654Z,70.66
2022-08-19T12:25:09.661Z,70.23
2022-08-19T12:26:09.661Z,70.11
2022-08-19T12:27:12.952Z,70.17
2022-08-19T12:29:09.699Z,70.35
2022-08-19T12:30:09.679Z,70.35
2022-08-19T12:31:09.678Z,70.28
2022-08-19T12:32:10.413Z,70.15
2022-08-19T12:33:09.679Z,70.05
2022-08-19T12:34:09.688Z,69.91
2022-08-19T12:35:09.714Z,69.80
2022-08-19T12:36:09.692Z,69.89
2022-08-19T12:37:09.709Z,69.93
2022-08-19T12:38:09.716Z,69.97
2022-08-19T12:39:10.690Z,69.70
2022-08-19T12:40:09.894Z,69.83
2022-08-19T12:41:09.714Z,69.67
2022-08-19T12:42:09.724Z,69.67
2022-08-19T12:43:09.722Z,69.27
2022-08-19T12:44:09.730Z,69.69
2022-08-19T12:45:09.724Z,69.81
2022-08-19T12:46:10.812Z,69.82
2022-08-19T12:47:09.726Z,69.52
2022-08-19T12:48:33.898Z,69.52
2022-08-19T12:51:09.738Z,70.13
2022-08-19T12:52:09.741Z,69.74
2022-08-19T12:53:09.761Z,69.87
2022-08-19T12:54:09.738Z,69.81
2022-08-19T12:55:09.742Z,69.71
2022-08-19T12:56:12.169Z,69.55
2022-08-19T12:57:09.738Z,69.31
2022-08-19T12:58:09.758Z,69.22
2022-08-19T12:59:09.747Z,69.15
2022-08-19T13:00:09.760Z,69.32
2022-08-19T13:02:09.769Z,69.21
2022-08-19T13:03:09.764Z,69.21
2022-08-19T13:04:09.762Z,69.11
2022-08-19T13:06:09.827Z,69.08
2022-08-19T13:07:09.786Z,68.94
2022-08-19T13:10:09.771Z,69.25
2022-08-19T13:11:09.799Z,69.14
2022-08-19T13:12:09.783Z,69.27
2022-08-19T13:13:09.773Z,69.31
2022-08-19T13:14:09.796Z,68.86
2022-08-19T13:16:09.801Z,69.08
2022-08-19T13:17:09.816Z,68.96
2022-08-19T13:20:09.820Z,68.83
2022-08-19T13:21:09.820Z,68.88
2022-08-19T13:22:13.282Z,68.98
2022-08-19T13:23:09.824Z,68.98
2022-08-19T13:24:09.802Z,68.84
2022-08-19T13:25:09.815Z,68.73
2022-08-19T13:26:09.822Z,68.71
2022-08-19T13:27:09.820Z,68.75
2022-08-19T13:28:09.825Z,68.58
2022-08-19T13:29:09.825Z,68.35
2022-08-19T13:30:09.843Z,68.36
2022-08-19T13:31:09.823Z,68.17
2022-08-19T13:34:09.854Z,68.14
2022-08-19T13:35:11.860Z,67.96
2022-08-19T13:37:09.832Z,68.13
2022-08-19T13:38:11.681Z,67.91
2022-08-19T13:39:09.853Z,67.95
2022-08-19T13:42:09.890Z,67.59
2022-08-19T13:43:13.693Z,67.60
2022-08-19T13:44:09.879Z,67.48
2022-08-19T13:45:09.873Z,68.16
2022-08-19T13:47:09.877Z,67.94
2022-08-19T13:49:09.891Z,67.54
2022-08-19T13:50:09.898Z,67.80
2022-08-19T13:51:09.878Z,67.80
2022-08-19T13:52:09.877Z,67.65
2022-08-19T13:53:09.892Z,67.71
2022-08-19T13:54:09.886Z,67.54
2022-08-19T13:55:09.915Z,67.85
2022-08-19T13:56:09.907Z,68.21
2022-08-19T13:57:09.899Z,68.03
2022-08-19T13:58:09.897Z,67.78
2022-08-19T13:59:09.897Z,67.95
2022-08-19T14:00:09.907Z,67.85
2022-08-19T14:01:10.007Z,67.88
2022-08-19T14:03:09.922Z,67.80
2022-08-19T14:04:09.930Z,67.62
2022-08-19T14:06:09.960Z,67.36
2022-08-19T14:07:09.938Z,67.31
2022-08-19T14:08:09.945Z,67.31
2022-08-19T14:09:09.920Z,67.58
2022-08-19T14:10:09.935Z,67.88
2022-08-19T14:11:09.945Z,67.37
2022-08-19T14:12:09.943Z,67.62
2022-08-19T14:13:09.932Z,67.72
2022-08-19T14:14:13.283Z,68.28
2022-08-19T14:15:09.961Z,68.38
2022-08-19T14:16:09.948Z,68.29
2022-08-19T14:17:09.955Z,68.25
2022-08-19T14:18:09.953Z,67.92
2022-08-19T14:19:09.954Z,67.08
2022-08-19T14:20:11.023Z,67.47
2022-08-19T14:21:09.972Z,67.52
2022-08-19T14:22:09.962Z,67.37
2022-08-19T14:23:09.961Z,67.55
2022-08-19T14:24:09.972Z,67.77
2022-08-19T14:25:09.973Z,67.49
2022-08-19T14:26:09.980Z,66.78
2022-08-19T14:27:09.981Z,67.44
2022-08-19T14:28:09.974Z,67.88
2022-08-19T14:29:09.981Z,68.17
2022-08-19T14:30:10.028Z,67.72
2022-08-19T14:31:09.982Z,67.72
2022-08-19T14:32:11.553Z,67.58
2022-08-19T14:33:09.998Z,68.48
2022-08-19T14:34:10.004Z,68.36
2022-08-19T14:35:10.016Z,68.49
2022-08-19T14:37:09.997Z,68.27
2022-08-19T14:38:10.005Z,68.33
2022-08-19T14:39:10.005Z,68.33
2022-08-19T14:40:10.049Z,68.13
2022-08-19T14:41:10.014Z,67.87
2022-08-19T14:42:11.499Z,67.71
2022-08-19T14:43:10.018Z,67.56
2022-08-19T14:44:10.032Z,67.47
2022-08-19T14:45:10.032Z,67.50
2022-08-19T14:47:10.135Z,66.40
2022-08-19T14:48:19.023Z,66.58
2022-08-19T14:49:10.032Z,66.67
2022-08-19T14:50:10.581Z,66.67
2022-08-19T14:51:10.032Z,66.47
2022-08-19T14:52:10.045Z,66.56
2022-08-19T14:54:10.045Z,66.51
2022-08-19T14:55:10.054Z,66.13
2022-08-19T14:56:10.083Z,66.42
2022-08-19T14:58:10.101Z,67.03
2022-08-19T14:59:10.072Z,67.10
2022-08-19T15:00:10.054Z,67.10
2022-08-19T15:01:10.057Z,67.00
2022-08-19T15:02:33.273Z,66.95
2022-08-19T15:03:10.095Z,66.85
2022-08-19T15:04:10.078Z,66.51
2022-08-19T15:05:10.080Z,66.38
2022-08-19T15:06:10.069Z,66.06
2022-08-19T15:07:10.102Z,66.12
2022-08-19T15:08:10.185Z,65.92
2022-08-19T15:09:10.087Z,66.18
2022-08-19T15:10:10.079Z,66.35
2022-08-19T15:11:10.109Z,66.05
2022-08-19T15:12:10.076Z,66.05
2022-08-19T15:13:10.115Z,66.75
2022-08-19T15:16:18.013Z,67.50
2022-08-19T15:17:10.113Z,67.76
2022-08-19T15:18:10.125Z,68.06
2022-08-19T15:19:10.107Z,67.67
2022-08-19T15:20:10.139Z,67.30
2022-08-19T15:21:10.113Z,67.30
2022-08-19T15:22:10.130Z,67.27
2022-08-19T15:23:10.128Z,66.38
2022-08-19T15:24:10.133Z,66.40
2022-08-19T15:25:10.140Z,66.11
2022-08-19T15:26:16.106Z,67.03
2022-08-19T15:28:10.135Z,66.88
2022-08-19T15:29:10.143Z,66.90
2022-08-19T15:30:10.144Z,67.26
2022-08-19T15:31:10.187Z,67.10
2022-08-19T15:32:10.143Z,66.64
2022-08-19T15:33:10.165Z,66.75
2022-08-19T15:34:10.145Z,66.73
2022-08-19T15:35:10.184Z,66.38
2022-08-19T15:36:10.153Z,66.21
2022-08-19T15:37:10.145Z,66.18
2022-08-19T15:38:10.179Z,65.88
2022-08-19T15:39:10.188Z,65.96
2022-08-19T15:40:10.228Z,66.16
2022-08-19T15:41:10.174Z,66.38
2022-08-19T15:42:10.178Z,66.34
2022-08-19T15:43:10.180Z,66.26
2022-08-19T15:44:10.164Z,66.29
2022-08-19T15:45:10.224Z,66.24